Time;durP1;ratioP1;P1;durP2;ratioP2;P2;SDS_P1;SDS_P2;PMS_P1;PMS_P2;Temp;Humidity;BMP_temperature;BMP_pressure;BME280_temperature;BME280_humidity;BME280_pressure;Samples;Min_cycle;Max_cycle;Signal;HPM_P1;HPM_P2
2022/01/18 00:00:11;;;;;;;54.65;10.13;;;7.70;99.90;;;;;;5003906;28;20057;-74
2022/01/18 00:02:39;;;;;;;56.65;9.20;;;7.60;99.90;;;;;;5032570;28;20131;-75
2022/01/18 00:05:06;;;;;;;58.42;8.45;;;7.60;99.90;;;;;;5033207;28;20052;-74
2022/01/18 00:07:32;;;;;;;62.90;10.00;;;7.50;99.90;;;;;;5063182;28;20124;-75
2022/01/18 00:09:58;;;;;;;54.78;8.93;;;7.50;99.90;;;;;;5065744;28;20067;-75
2022/01/18 00:18:05;;;;;;;55.47;9.45;;;7.50;99.90;;;;;;5044934;28;20466;-74
2022/01/18 00:20:46;;;;;;;54.40;8.73;;;7.40;99.90;;;;;;5063615;28;20048;-75
2022/01/18 00:23:12;;;;;;;55.33;8.40;;;7.40;99.90;;;;;;5048159;28;20049;-74
2022/01/18 00:25:41;;;;;;;52.25;8.70;;;7.30;99.90;;;;;;5041613;28;20602;-75
2022/01/18 00:28:07;;;;;;;55.05;9.27;;;7.20;99.90;;;;;;5016458;28;20123;-75
2022/01/18 00:35:44;;;;;;;64.47;9.18;;;7.20;99.90;;;;;;5048678;28;20455;-75
2022/01/18 00:38:28;;;;;;;65.85;11.05;;;7.10;99.90;;;;;;5027234;28;20500;-75
2022/01/18 00:40:55;;;;;;;59.83;10.77;;;7.10;99.90;;;;;;5047349;28;20049;-74
2022/01/18 00:43:21;;;;;;;56.53;9.32;;;7.10;99.90;;;;;;5032066;28;20049;-75
2022/01/18 00:45:47;;;;;;;59.75;8.70;;;7.00;99.90;;;;;;5015650;28;20483;-74
2022/01/18 00:48:13;;;;;;;58.58;9.68;;;7.00;99.90;;;;;;5015675;28;20055;-74
2022/01/18 00:50:42;;;;;;;56.47;9.40;;;6.90;99.90;;;;;;5032301;28;20049;-75
2022/01/18 00:53:12;;;;;;;61.45;9.32;;;6.90;99.90;;;;;;5015721;28;20045;-74
2022/01/18 00:55:49;;;;;;;57.97;10.18;;;6.90;99.90;;;;;;5023114;28;20068;-74
2022/01/18 00:58:15;;;;;;;71.78;10.52;;;6.90;99.90;;;;;;4996024;28;20061;-74
2022/01/18 01:00:41;;;;;;;71.10;10.43;;;6.80;99.90;;;;;;5016766;28;20556;-75
2022/01/18 01:03:07;;;;;;;64.10;9.73;;;6.80;99.90;;;;;;5032299;28;20550;-74
2022/01/18 01:05:34;;;;;;;65.40;11.57;;;6.80;99.90;;;;;;5015933;28;20045;-75
2022/01/18 01:08:00;;;;;;;63.33;10.88;;;6.70;99.90;;;;;;5033983;28;20052;-75
2022/01/18 01:10:27;;;;;;;72.85;11.88;;;6.70;99.90;;;;;;5051199;28;20036;-75
2022/01/18 01:12:54;;;;;;;70.47;12.30;;;6.70;99.90;;;;;;5053997;28;20402;-75
2022/01/18 01:15:23;;;;;;;67.10;10.90;;;6.70;99.90;;;;;;5010632;28;20503;-75
2022/01/18 01:18:09;;;;;;;66.47;11.68;;;6.60;99.90;;;;;;5031336;28;20049;-75
2022/01/18 01:45:24;;;;;;;61.13;11.70;;;6.40;99.90;;;;;;5040940;28;20060;-74
2022/01/18 01:47:52;;;;;;;76.32;12.90;;;6.40;99.90;;;;;;5015054;28;20103;-74
2022/01/18 01:50:21;;;;;;;64.13;12.15;;;6.40;99.90;;;;;;5017235;28;20041;-74
2022/01/18 01:52:48;;;;;;;78.15;13.93;;;6.50;99.90;;;;;;5018442;28;20518;-74
2022/01/18 01:55:15;;;;;;;67.53;12.63;;;6.50;99.90;;;;;;5024108;28;20037;-74
2022/01/18 01:57:41;;;;;;;65.60;12.27;;;6.50;99.90;;;;;;5042517;28;20052;-74
2022/01/18 02:00:13;;;;;;;56.83;11.07;;;6.40;99.90;;;;;;5028909;28;20041;-74
2022/01/18 02:02:39;;;;;;;77.82;13.55;;;6.40;99.90;;;;;;5028885;28;20044;-74
2022/01/18 02:05:06;;;;;;;81.88;13.77;;;6.50;99.90;;;;;;5028123;28;20056;-75
2022/01/18 02:07:32;;;;;;;71.13;12.77;;;6.50;99.90;;;;;;5029967;28;21437;-75
2022/01/18 02:09:58;;;;;;;76.47;13.38;;;6.50;99.90;;;;;;5027568;28;20461;-75
2022/01/18 02:12:27;;;;;;;48.10;10.50;;;6.50;99.90;;;;;;5029750;28;20045;-75
2022/01/18 02:14:58;;;;;;;61.25;12.82;;;6.50;99.90;;;;;;5026077;28;20045;-74
2022/01/18 02:22:56;;;;;;;75.28;15.93;;;6.50;99.90;;;;;;5030334;28;20084;-74
2022/01/18 02:25:23;;;;;;;90.38;15.50;;;6.50;99.90;;;;;;5032165;28;20071;-74
2022/01/18 02:27:49;;;;;;;62.63;13.68;;;6.50;99.90;;;;;;5049704;28;20093;-74
2022/01/18 02:30:15;;;;;;;78.82;15.10;;;6.50;99.90;;;;;;5016143;28;20057;-74
2022/01/18 02:32:41;;;;;;;65.65;13.82;;;6.50;99.90;;;;;;5048531;28;20510;-74
2022/01/18 02:35:07;;;;;;;68.63;13.88;;;6.50;99.90;;;;;;5017004;28;20113;-74
2022/01/18 02:37:33;;;;;;;65.18;13.05;;;6.50;99.90;;;;;;5032105;28;20041;-75
2022/01/18 02:39:59;;;;;;;67.10;13.45;;;6.50;99.90;;;;;;5032117;28;20372;-74
2022/01/18 02:42:30;;;;;;;76.07;15.18;;;6.50;99.90;;;;;;5033026;28;20116;-74
2022/01/18 02:44:56;;;;;;;72.72;13.93;;;6.50;99.90;;;;;;5050010;28;20491;-74
2022/01/18 02:47:23;;;;;;;78.72;14.90;;;6.60;99.90;;;;;;5049405;28;20097;-74
2022/01/18 02:49:50;;;;;;;75.75;14.68;;;6.60;99.90;;;;;;5017860;28;20044;-74
2022/01/18 02:52:16;;;;;;;49.10;11.15;;;6.70;99.90;;;;;;5032805;28;20978;-74
2022/01/18 02:54:43;;;;;;;68.93;11.88;;;6.60;99.90;;;;;;5048607;28;20092;-74
2022/01/18 02:57:14;;;;;;;66.18;12.48;;;6.50;99.90;;;;;;5015600;28;20044;-74
2022/01/18 03:05:13;;;;;;;65.30;11.93;;;6.50;99.90;;;;;;5033798;28;20100;-74
2022/01/18 03:07:40;;;;;;;45.92;10.25;;;6.50;99.90;;;;;;5017318;28;20423;-74
2022/01/18 03:10:08;;;;;;;51.03;10.55;;;6.50;99.90;;;;;;5033959;28;20045;-74
2022/01/18 03:12:33;;;;;;;56.05;10.38;;;6.50;99.90;;;;;;5016450;28;20511;-74
2022/01/18 03:14:59;;;;;;;47.47;8.93;;;6.50;99.90;;;;;;5033624;28;20056;-73
2022/01/18 03:17:25;;;;;;;45.90;9.50;;;6.50;99.90;;;;;;5033327;28;20040;-74
2022/01/18 03:19:54;;;;;;;41.20;8.50;;;6.60;99.90;;;;;;5024179;28;20117;-74
2022/01/18 03:22:20;;;;;;;35.75;8.13;;;6.50;99.90;;;;;;5023113;28;20040;-74
2022/01/18 03:25:00;;;;;;;42.33;8.90;;;6.60;99.90;;;;;;5016281;28;20395;-74
2022/01/18 03:30:11;;;;;;;43.00;8.48;;;6.70;99.90;;;;;;5050030;28;20049;-74
2022/01/18 03:32:38;;;;;;;42.63;8.68;;;6.70;99.90;;;;;;5032336;28;20127;-74
2022/01/18 03:35:06;;;;;;;37.28;7.38;;;6.70;99.90;;;;;;5043340;28;20045;-73
2022/01/18 03:37:32;;;;;;;33.30;7.15;;;6.70;99.90;;;;;;5033279;28;20036;-74
2022/01/18 03:39:58;;;;;;;34.10;7.18;;;6.70;99.90;;;;;;5067276;28;20106;-74
2022/01/18 03:42:40;;;;;;;30.60;6.18;;;6.70;99.90;;;;;;5033740;28;20499;-74
2022/01/18 03:45:17;;;;;;;31.52;6.85;;;6.70;99.90;;;;;;5050234;28;20052;-74
2022/01/18 03:47:45;;;;;;;28.63;6.63;;;6.70;99.90;;;;;;5043483;28;20478;-74
2022/01/18 03:50:12;;;;;;;28.42;6.18;;;6.70;99.90;;;;;;5014410;28;20127;-74
2022/01/18 03:52:39;;;;;;;33.60;5.50;;;6.70;99.90;;;;;;5032427;28;20049;-74
2022/01/18 03:55:06;;;;;;;25.27;6.07;;;6.80;99.90;;;;;;5047855;28;20354;-74
2022/01/18 03:57:33;;;;;;;31.08;6.15;;;6.80;99.90;;;;;;5032527;28;20045;-74
2022/01/18 03:59:58;;;;;;;33.30;7.15;;;6.80;99.90;;;;;;5015425;28;20049;-74
2022/01/18 04:02:27;;;;;;;26.95;6.50;;;6.80;99.90;;;;;;5032467;28;20048;-74
2022/01/18 04:04:53;;;;;;;31.02;6.47;;;6.80;99.90;;;;;;5033165;28;20057;-74
2022/01/18 04:07:19;;;;;;;25.90;5.35;;;6.80;99.90;;;;;;5032698;28;20048;-74
2022/01/18 04:09:44;;;;;;;25.50;6.20;;;6.80;99.90;;;;;;5032871;28;20298;-74
2022/01/18 04:12:11;;;;;;;28.77;5.93;;;6.90;99.90;;;;;;4999738;28;20052;-74
2022/01/18 04:14:37;;;;;;;30.80;5.97;;;6.80;99.90;;;;;;5032350;28;20139;-74
2022/01/18 04:17:14;;;;;;;28.77;6.07;;;6.80;99.90;;;;;;5031936;28;20179;-74
2022/01/18 04:27:52;;;;;;;26.73;5.90;;;6.80;99.90;;;;;;5049281;28;20064;-74
2022/01/18 04:30:18;;;;;;;25.00;5.57;;;6.70;99.90;;;;;;5032281;28;20119;-74
2022/01/18 04:32:44;;;;;;;28.98;6.15;;;6.70;99.90;;;;;;5014830;28;20122;-74
2022/01/18 04:35:10;;;;;;;26.27;5.25;;;6.60;99.90;;;;;;5027802;28;20453;-74
2022/01/18 04:37:35;;;;;;;20.57;5.60;;;6.60;99.90;;;;;;5048518;28;20376;-74
2022/01/18 04:40:12;;;;;;;20.17;4.82;;;6.60;99.90;;;;;;5015677;28;20045;-74
2022/01/18 04:50:57;;;;;;;26.40;5.03;;;6.50;99.90;;;;;;5048883;28;20057;-74
2022/01/18 04:53:23;;;;;;;24.88;5.35;;;6.50;99.90;;;;;;5048778;28;20072;-74
2022/01/18 04:55:55;;;;;;;17.75;4.60;;;6.50;99.90;;;;;;5040689;28;20485;-74
2022/01/18 04:58:23;;;;;;;24.65;4.68;;;6.60;99.90;;;;;;5024303;28;20511;-74
2022/01/18 05:00:50;;;;;;;20.70;5.18;;;6.60;99.90;;;;;;5029960;28;20128;-74
2022/01/18 05:03:16;;;;;;;26.17;5.28;;;6.60;99.90;;;;;;4998993;28;20052;-74
2022/01/18 05:05:42;;;;;;;23.05;5.13;;;6.50;99.90;;;;;;5031151;28;20060;-74
2022/01/18 05:08:13;;;;;;;22.75;5.72;;;6.50;99.90;;;;;;5031974;28;20108;-74
2022/01/18 05:10:40;;;;;;;24.67;5.97;;;6.60;99.90;;;;;;5016207;28;20521;-74
2022/01/18 05:13:30;;;;;;;24.30;5.75;;;6.50;99.90;;;;;;5014272;28;20074;-74
2022/01/18 05:16:22;;;;;;;24.60;6.38;;;6.50;99.90;;;;;;5011907;28;20758;-74
2022/01/18 05:24:15;;;;;;;26.45;5.60;;;6.50;99.90;;;;;;5031498;28;20199;-73
2022/01/18 05:26:41;;;;;;;21.73;6.10;;;6.40;99.90;;;;;;5014225;28;20144;-74
2022/01/18 05:29:07;;;;;;;24.15;6.05;;;6.40;99.90;;;;;;4998328;28;20107;-74
2022/01/18 05:31:33;;;;;;;23.48;5.55;;;6.50;99.90;;;;;;5013586;28;20057;-74
2022/01/18 05:33:59;;;;;;;24.35;5.43;;;6.40;99.90;;;;;;5033757;28;20052;-74
2022/01/18 05:36:25;;;;;;;21.67;5.05;;;6.40;99.90;;;;;;5031125;28;20056;-74
2022/01/18 05:38:51;;;;;;;22.00;5.38;;;6.40;99.90;;;;;;5048307;28;20052;-74
2022/01/18 05:41:17;;;;;;;23.60;5.18;;;6.50;99.90;;;;;;5030932;28;20411;-74
2022/01/18 05:43:42;;;;;;;22.33;4.80;;;6.50;99.90;;;;;;5064923;28;20079;-74
2022/01/18 05:46:08;;;;;;;18.08;5.60;;;6.50;99.90;;;;;;5031311;28;20478;-74
2022/01/18 05:48:34;;;;;;;19.42;5.18;;;6.50;99.90;;;;;;5047636;28;20452;-74
2022/01/18 05:51:00;;;;;;;26.75;5.30;;;6.50;99.90;;;;;;5031089;28;20083;-74
2022/01/18 05:53:31;;;;;;;19.48;5.03;;;6.40;99.90;;;;;;5030426;28;20049;-74
2022/01/18 05:55:58;;;;;;;21.30;5.00;;;6.50;99.90;;;;;;5021393;28;20529;-74
2022/01/18 05:58:24;;;;;;;17.60;4.95;;;6.40;99.90;;;;;;5023802;28;20049;-74
2022/01/18 06:00:52;;;;;;;20.50;4.47;;;6.50;99.90;;;;;;5028776;28;20045;-74
2022/01/18 06:03:38;;;;;;;23.55;4.88;;;6.40;99.90;;;;;;5024754;28;20472;-74
2022/01/18 06:08:48;;;;;;;21.00;4.73;;;6.40;99.90;;;;;;5005047;28;20049;-74
2022/01/18 06:11:14;;;;;;;22.17;4.63;;;6.40;99.90;;;;;;5015878;28;20099;-74
2022/01/18 06:13:40;;;;;;;18.15;4.50;;;6.40;99.90;;;;;;5032884;28;20088;-74
2022/01/18 06:16:06;;;;;;;21.20;4.90;;;6.30;99.90;;;;;;5033163;28;20071;-74
2022/01/18 06:18:32;;;;;;;23.23;4.78;;;6.30;99.90;;;;;;5016932;28;20053;-74
2022/01/18 06:20:58;;;;;;;20.55;4.68;;;6.30;99.90;;;;;;5019214;28;20585;-74
2022/01/18 06:23:27;;;;;;;16.83;4.90;;;6.30;99.90;;;;;;5033738;28;20056;-74
2022/01/18 06:25:54;;;;;;;19.75;5.10;;;6.30;99.90;;;;;;5032949;28;20052;-74
2022/01/18 06:28:20;;;;;;;21.15;4.93;;;6.30;99.90;;;;;;5015840;28;20045;-74
2022/01/18 06:30:46;;;;;;;17.85;5.30;;;6.30;99.90;;;;;;5033015;28;20118;-74
2022/01/18 06:33:12;;;;;;;24.10;5.90;;;6.30;99.90;;;;;;5028135;28;20094;-74
2022/01/18 06:35:37;;;;;;;24.58;6.32;;;6.30;99.90;;;;;;5029834;28;20045;-74
2022/01/18 06:38:03;;;;;;;23.75;5.57;;;6.30;99.90;;;;;;5033175;28;20064;-74
2022/01/18 06:40:29;;;;;;;21.88;5.38;;;6.30;99.90;;;;;;5000476;28;20083;-75
2022/01/18 06:42:55;;;;;;;19.88;5.70;;;6.30;99.90;;;;;;5015560;28;20056;-74
2022/01/18 06:45:21;;;;;;;20.73;6.40;;;6.30;99.90;;;;;;5024489;28;20053;-74
2022/01/18 06:47:47;;;;;;;21.17;5.93;;;6.30;99.90;;;;;;5014377;28;20402;-74
2022/01/18 06:50:12;;;;;;;26.27;6.60;;;6.30;99.90;;;;;;4980051;28;20047;-74
2022/01/18 06:52:39;;;;;;;24.60;6.80;;;6.30;99.90;;;;;;5011262;28;20384;-74
2022/01/18 06:55:06;;;;;;;24.35;7.47;;;6.30;99.90;;;;;;4994959;28;20049;-75
2022/01/18 06:57:32;;;;;;;19.48;7.10;;;6.20;99.90;;;;;;5024150;28;20041;-74
2022/01/18 06:59:58;;;;;;;21.73;7.38;;;6.20;99.90;;;;;;5030163;28;20049;-74
2022/01/18 07:02:23;;;;;;;22.40;7.20;;;6.20;99.90;;;;;;5015783;28;20410;-74
2022/01/18 07:04:52;;;;;;;20.30;6.28;;;6.20;99.90;;;;;;5026326;28;20128;-74
2022/01/18 07:07:18;;;;;;;22.80;7.18;;;6.10;99.90;;;;;;5030534;28;20474;-74
2022/01/18 07:09:44;;;;;;;25.30;7.70;;;6.10;99.90;;;;;;5031405;28;20095;-74
2022/01/18 07:12:12;;;;;;;22.42;8.15;;;6.10;99.90;;;;;;5032750;28;20049;-73
2022/01/18 07:14:41;;;;;;;22.33;8.00;;;6.10;99.90;;;;;;5031556;28;20045;-74
2022/01/18 07:17:07;;;;;;;24.65;7.90;;;6.10;99.90;;;;;;5030665;28;20043;-74
2022/01/18 07:19:33;;;;;;;23.52;8.18;;;6.10;99.90;;;;;;5033214;28;20037;-74
2022/01/18 07:22:00;;;;;;;26.95;7.40;;;6.10;99.90;;;;;;5027825;28;20040;-74
2022/01/18 07:24:42;;;;;;;22.40;7.57;;;6.20;99.90;;;;;;5029688;28;20468;-73
2022/01/18 07:27:09;;;;;;;23.80;7.78;;;6.10;99.90;;;;;;5029626;28;20040;-74
2022/01/18 07:29:36;;;;;;;22.70;8.40;;;6.10;99.90;;;;;;5025577;28;20061;-74
2022/01/18 07:32:02;;;;;;;23.73;8.10;;;6.10;99.90;;;;;;5011076;28;20056;-74
2022/01/18 07:34:30;;;;;;;23.67;8.40;;;6.00;99.90;;;;;;5028306;28;20047;-74
2022/01/18 07:36:56;;;;;;;26.30;9.00;;;6.00;99.90;;;;;;5025054;28;20037;-74
2022/01/18 07:39:22;;;;;;;20.48;8.18;;;6.00;99.90;;;;;;4994357;28;20059;-74
2022/01/18 07:41:47;;;;;;;23.13;8.30;;;6.00;99.90;;;;;;5025487;28;20458;-74
2022/01/18 07:44:13;;;;;;;24.52;8.88;;;6.00;99.90;;;;;;5028289;28;20037;-74
2022/01/18 07:46:39;;;;;;;23.75;7.93;;;6.00;99.90;;;;;;5011797;28;20040;-73
2022/01/18 07:49:05;;;;;;;22.00;8.73;;;6.00;99.90;;;;;;5011346;28;20048;-74
2022/01/18 07:51:30;;;;;;;26.65;8.88;;;6.00;99.90;;;;;;5010822;28;20054;-74
2022/01/18 07:53:56;;;;;;;25.63;8.27;;;6.00;99.90;;;;;;5028963;28;20391;-74
2022/01/18 07:56:22;;;;;;;27.60;8.17;;;6.00;99.90;;;;;;5015104;28;20055;-73
2022/01/18 07:58:48;;;;;;;22.00;8.13;;;6.00;99.90;;;;;;5028114;28;20454;-74
2022/01/18 08:01:14;;;;;;;29.60;9.55;;;6.00;99.90;;;;;;5029860;28;20482;-74
2022/01/18 08:03:39;;;;;;;26.52;9.63;;;6.00;99.90;;;;;;5011906;28;20136;-74
2022/01/18 08:06:05;;;;;;;26.77;9.13;;;6.00;99.90;;;;;;5030248;28;20053;-74
2022/01/18 08:08:32;;;;;;;25.40;8.98;;;6.10;99.90;;;;;;5015298;28;20506;-74
2022/01/18 08:10:58;;;;;;;29.70;9.70;;;6.10;99.90;;;;;;5011300;28;20044;-74
2022/01/18 08:13:36;;;;;;;29.40;9.60;;;6.10;99.90;;;;;;4995367;28;20045;-74
2022/01/18 08:16:21;;;;;;;27.20;9.00;;;6.10;99.90;;;;;;4993269;28;20080;-74
2022/01/18 08:18:48;;;;;;;26.50;9.60;;;6.10;99.90;;;;;;5031115;28;20060;-74
2022/01/18 08:21:14;;;;;;;26.40;9.27;;;6.10;99.90;;;;;;5047686;28;20529;-74
2022/01/18 08:23:40;;;;;;;29.67;8.63;;;6.10;99.90;;;;;;5013770;28;20053;-74
2022/01/18 08:26:08;;;;;;;27.80;8.50;;;6.10;99.90;;;;;;5019882;28;21148;-74
2022/01/18 08:28:34;;;;;;;23.90;7.73;;;6.10;99.90;;;;;;5041808;28;20086;-74
2022/01/18 08:31:00;;;;;;;20.97;7.70;;;6.10;99.90;;;;;;5009525;28;20056;-74
2022/01/18 08:33:26;;;;;;;23.95;7.70;;;6.10;99.90;;;;;;4974675;28;20041;-74
2022/01/18 08:35:52;;;;;;;26.08;7.25;;;6.10;99.90;;;;;;5008458;28;20053;-74
2022/01/18 08:38:18;;;;;;;22.05;7.43;;;6.10;99.90;;;;;;4993100;28;20269;-73
2022/01/18 08:40:44;;;;;;;18.37;7.90;;;6.20;99.90;;;;;;4975507;28;20050;-74
2022/01/18 08:43:10;;;;;;;24.80;7.87;;;6.20;99.90;;;;;;5010796;28;20049;-74
2022/01/18 08:45:35;;;;;;;18.63;6.93;;;6.20;99.90;;;;;;5021954;28;20091;-74
2022/01/18 08:48:02;;;;;;;17.87;6.63;;;6.20;99.90;;;;;;4994874;28;20480;-74
2022/01/18 08:50:28;;;;;;;22.38;7.05;;;6.30;99.90;;;;;;4992790;28;20041;-74
2022/01/18 08:52:57;;;;;;;23.60;6.45;;;6.30;99.90;;;;;;4974688;28;20102;-74
2022/01/18 08:55:23;;;;;;;18.67;6.88;;;6.30;99.90;;;;;;5006703;28;20052;-74
2022/01/18 08:57:49;;;;;;;21.02;6.13;;;6.30;99.90;;;;;;5018066;28;20590;-74
2022/01/18 09:00:16;;;;;;;19.93;6.30;;;6.30;99.90;;;;;;5000056;28;20125;-74
2022/01/18 09:02:42;;;;;;;19.95;6.60;;;6.40;99.90;;;;;;5003086;28;20095;-74
2022/01/18 09:05:09;;;;;;;21.47;7.47;;;6.40;99.90;;;;;;5003043;28;20041;-74
2022/01/18 09:07:37;;;;;;;25.20;8.83;;;6.40;99.90;;;;;;5006330;28;20049;-74
2022/01/18 09:10:07;;;;;;;23.52;8.05;;;6.40;99.90;;;;;;4988630;28;20049;-74
2022/01/18 09:12:36;;;;;;;20.65;8.10;;;6.40;99.90;;;;;;5002235;28;20134;-74
2022/01/18 09:15:07;;;;;;;25.57;10.00;;;6.40;99.90;;;;;;5009867;28;20049;-74
2022/01/18 09:17:33;;;;;;;;;;;6.40;99.90;;;;;;5000074;28;20578;-74
2022/01/18 09:20:05;;;;;;;28.35;10.65;;;6.40;99.90;;;;;;4992340;28;19925;-74
2022/01/18 09:22:32;;;;;;;25.17;10.57;;;6.40;99.90;;;;;;5001704;28;20046;-74
2022/01/18 09:24:58;;;;;;;28.17;11.15;;;6.40;99.90;;;;;;4989535;28;20045;-74
2022/01/18 09:27:27;;;;;;;27.65;11.27;;;6.40;99.90;;;;;;5024504;28;20045;-74
2022/01/18 09:29:53;;;;;;;24.60;11.23;;;6.40;99.90;;;;;;5014509;28;20056;-74
2022/01/18 09:32:19;;;;;;;25.13;10.50;;;6.50;99.90;;;;;;4992420;28;20045;-74
2022/01/18 09:34:45;;;;;;;30.67;11.73;;;6.50;99.90;;;;;;4992182;28;20061;-74
2022/01/18 09:37:10;;;;;;;28.15;11.27;;;6.50;99.90;;;;;;5008925;28;20048;-74
2022/01/18 09:39:36;;;;;;;30.23;11.35;;;6.50;99.90;;;;;;4991025;28;20067;-74
2022/01/18 09:42:04;;;;;;;27.27;11.40;;;6.50;99.90;;;;;;4992244;28;20504;-74
2022/01/18 09:44:30;;;;;;;31.92;11.93;;;6.50;99.90;;;;;;4990442;28;20073;-74
2022/01/18 09:46:56;;;;;;;32.03;12.43;;;6.50;99.90;;;;;;5024314;28;20091;-74
2022/01/18 09:49:24;;;;;;;30.88;12.75;;;6.50;99.90;;;;;;4991229;28;20052;-74
2022/01/18 09:51:51;;;;;;;33.88;13.27;;;6.60;99.90;;;;;;4972599;28;20057;-74
2022/01/18 09:54:20;;;;;;;31.00;12.55;;;6.60;99.90;;;;;;5001897;28;20052;-74
2022/01/18 09:56:46;;;;;;;34.93;13.63;;;6.60;99.90;;;;;;4988766;28;20051;-74
2022/01/18 09:59:11;;;;;;;29.80;12.23;;;6.60;99.90;;;;;;4975080;28;20045;-74
2022/01/18 10:01:37;;;;;;;28.20;12.80;;;6.60;99.90;;;;;;5007924;28;20515;-74
2022/01/18 10:04:15;;;;;;;33.28;13.43;;;6.60;99.90;;;;;;5003362;28;20050;-74
2022/01/18 10:06:42;;;;;;;28.13;12.30;;;6.70;99.90;;;;;;4982793;28;20160;-74
2022/01/18 10:09:12;;;;;;;30.30;11.75;;;6.70;99.90;;;;;;5007974;28;20053;-74
2022/01/18 10:12:05;;;;;;;28.60;11.80;;;6.70;99.90;;;;;;5007550;28;20125;-74
2022/01/18 10:14:31;;;;;;;25.70;11.03;;;6.70;99.90;;;;;;5009435;28;20053;-74
2022/01/18 10:16:58;;;;;;;26.80;11.85;;;6.80;99.90;;;;;;5020466;28;20068;-74
2022/01/18 10:19:30;;;;;;;24.80;11.05;;;6.80;99.90;;;;;;4988430;28;20080;-74
2022/01/18 10:22:11;;;;;;;27.02;12.02;;;6.80;99.90;;;;;;5007803;28;20048;-74
2022/01/18 10:24:38;;;;;;;31.83;11.90;;;6.80;99.90;;;;;;5004482;28;20049;-74
2022/01/18 10:27:05;;;;;;;25.08;11.82;;;6.80;99.90;;;;;;4991259;28;20101;-74
2022/01/18 10:29:35;;;;;;;23.92;11.20;;;6.80;99.90;;;;;;5013881;28;20045;-74
2022/01/18 10:32:34;;;;;;;27.10;12.48;;;6.80;99.90;;;;;;5021150;28;20399;-74
2022/01/18 10:37:22;;;;;;;28.58;11.40;;;6.80;99.90;;;;;;5022970;28;20140;-73
2022/01/18 10:39:52;;;;;;;21.67;10.75;;;6.90;99.90;;;;;;5043028;28;20506;-74
2022/01/18 10:42:42;;;;;;;24.08;11.32;;;6.90;99.90;;;;;;5020722;28;20045;-74
2022/01/18 10:45:12;;;;;;;;;;;7.00;99.90;;;;;;5024792;28;20114;-74
2022/01/18 10:47:48;;;;;;;22.83;9.70;;;7.00;99.90;;;;;;5011438;28;19924;-74
2022/01/18 10:50:15;;;;;;;24.80;9.60;;;7.00;99.90;;;;;;5007459;28;20385;-74
2022/01/18 10:52:42;;;;;;;24.77;10.23;;;7.00;99.90;;;;;;5028212;28;20056;-74
2022/01/18 10:55:19;;;;;;;23.73;9.73;;;7.00;99.90;;;;;;5009451;28;20049;-74
2022/01/18 10:57:46;;;;;;;21.00;8.82;;;7.10;99.90;;;;;;5046884;28;20049;-74
2022/01/18 11:00:18;;;;;;;20.17;7.32;;;7.00;99.90;;;;;;5009988;28;20148;-74
2022/01/18 11:02:50;;;;;;;25.00;7.63;;;7.10;99.90;;;;;;5029799;28;20419;-74
2022/01/18 11:05:20;;;;;;;22.42;8.05;;;7.10;99.90;;;;;;5029590;28;20058;-74
2022/01/18 11:07:48;;;;;;;21.38;8.50;;;7.10;99.90;;;;;;5014286;28;20386;-73
2022/01/18 11:10:16;;;;;;;18.85;7.55;;;7.10;99.90;;;;;;5012629;28;20111;-74
2022/01/18 11:12:43;;;;;;;21.27;7.40;;;7.20;99.90;;;;;;5015513;28;20044;-74
2022/01/18 11:15:18;;;;;;;18.73;8.23;;;7.20;99.90;;;;;;5031163;28;20052;-74
2022/01/18 11:17:50;;;;;;;18.73;6.15;;;7.20;99.90;;;;;;5031099;28;20510;-75
2022/01/18 11:20:18;;;;;;;15.85;4.88;;;7.20;99.90;;;;;;4993071;28;20042;-74
2022/01/18 11:22:47;;;;;;;18.10;4.55;;;7.20;99.90;;;;;;5010820;28;20110;-74
2022/01/18 11:25:13;;;;;;;14.55;4.40;;;7.20;99.90;;;;;;5024606;28;20044;-74
2022/01/18 11:27:42;;;;;;;13.10;4.28;;;7.20;99.90;;;;;;5029051;28;20056;-74
2022/01/18 11:30:09;;;;;;;17.17;4.30;;;7.20;99.90;;;;;;5027811;28;20526;-74
2022/01/18 11:32:36;;;;;;;12.88;4.38;;;7.20;99.90;;;;;;4995289;28;20053;-74
2022/01/18 11:35:36;;;;;;;17.73;5.03;;;7.20;99.90;;;;;;4993137;28;20049;-74
2022/01/18 11:38:16;;;;;;;14.63;5.30;;;7.20;99.90;;;;;;4990450;28;20531;-74
2022/01/18 11:40:50;;;;;;;16.40;5.20;;;7.20;99.90;;;;;;5013261;28;20054;-74
2022/01/18 11:43:43;;;;;;;13.80;5.20;;;7.20;99.90;;;;;;5017961;28;20069;-74
2022/01/18 11:46:27;;;;;;;15.00;4.90;;;7.20;99.90;;;;;;5023133;28;20132;-74
2022/01/18 11:49:15;;;;;;;16.75;5.47;;;7.20;99.90;;;;;;5003879;28;20408;-74
2022/01/18 11:51:45;;;;;;;16.15;5.10;;;7.20;99.90;;;;;;5018856;28;20099;-74
2022/01/18 11:54:26;;;;;;;;;;;7.20;99.90;;;;;;5018368;28;20084;-74
2022/01/18 11:56:53;;;;;;;12.98;4.63;;;7.20;99.90;;;;;;5006595;28;19948;-74
2022/01/18 11:59:22;;;;;;;17.45;6.20;;;7.20;99.90;;;;;;4984299;28;20069;-74
2022/01/18 12:01:59;;;;;;;19.13;6.50;;;7.20;99.90;;;;;;5022294;28;20045;-74
2022/01/18 12:07:33;;;;;;;9.98;4.63;;;7.10;99.90;;;;;;5027999;28;20561;-74
2022/01/18 12:10:06;;;;;;;16.17;4.50;;;7.20;99.90;;;;;;5029677;28;20065;-74
2022/01/18 12:12:46;;;;;;;15.38;4.93;;;7.20;99.90;;;;;;5029437;28;20046;-74
2022/01/18 12:15:15;;;;;;;18.15;4.80;;;7.20;99.90;;;;;;5011112;28;20060;-74
2022/01/18 12:18:04;;;;;;;18.40;4.72;;;7.20;99.90;;;;;;5026206;28;20128;-74
2022/01/18 12:20:46;;;;;;;14.32;4.97;;;7.20;99.90;;;;;;5007493;28;20052;-74
2022/01/18 12:23:17;;;;;;;12.70;3.65;;;7.20;99.90;;;;;;5041326;28;20099;-74
2022/01/18 12:26:10;;;;;;;;;;;7.20;99.90;;;;;;5025747;28;20061;-74
2022/01/18 12:34:46;;;;;;;16.20;4.72;;;7.10;99.90;;;;;;5017204;28;20053;-74
2022/01/18 12:37:13;;;;;;;12.52;4.80;;;7.10;99.90;;;;;;5013810;28;20044;-73
2022/01/18 12:40:03;;;;;;;13.50;4.43;;;7.10;99.90;;;;;;5029863;28;20648;-74
2022/01/18 12:45:16;;;;;;;14.07;4.85;;;7.20;99.90;;;;;;5029757;28;20064;-74
2022/01/18 12:47:44;;;;;;;15.05;4.63;;;7.10;99.90;;;;;;5030123;28;20088;-74
2022/01/18 12:50:11;;;;;;;14.35;5.47;;;7.10;99.90;;;;;;5013860;28;20132;-74
2022/01/18 12:52:56;;;;;;;16.90;5.38;;;7.10;99.90;;;;;;5029729;28;20033;-74
2022/01/18 12:55:36;;;;;;;13.65;5.15;;;7.10;99.90;;;;;;5029526;28;20103;-75
2022/01/18 12:58:19;;;;;;;16.20;6.05;;;7.10;99.90;;;;;;5028906;28;20112;-74
2022/01/18 13:00:56;;;;;;;19.58;6.38;;;7.10;99.90;;;;;;5010933;28;20049;-74
2022/01/18 13:03:27;;;;;;;15.45;5.72;;;7.10;99.90;;;;;;5028185;28;20538;-74
2022/01/18 13:05:56;;;;;;;19.38;6.75;;;7.10;99.90;;;;;;5031091;28;20352;-74
2022/01/18 13:08:29;;;;;;;16.70;6.07;;;7.10;99.90;;;;;;5013500;28;20462;-74
2022/01/18 13:10:55;;;;;;;17.20;6.00;;;7.10;99.90;;;;;;5026120;28;20092;-74
2022/01/18 13:13:29;;;;;;;19.80;7.15;;;7.20;99.90;;;;;;5025096;28;20416;-74
2022/01/18 13:25:01;;;;;;;21.08;8.82;;;7.10;99.90;;;;;;5029582;28;20062;-74
2022/01/18 13:26:55;;;;;;;25.38;9.23;;;7.10;99.90;;;;;;5007765;28;20044;-74
2022/01/18 13:29:24;;;;;;;14.25;7.70;;;7.10;99.90;;;;;;5010148;28;22213;-74
2022/01/18 13:32:23;;;;;;;17.02;8.02;;;7.10;99.90;;;;;;5010682;28;20083;-74
2022/01/18 13:34:54;;;;;;;20.35;8.57;;;7.10;99.90;;;;;;5027458;28;20041;-74
2022/01/18 13:37:26;;;;;;;17.60;7.97;;;7.10;99.90;;;;;;5025744;28;20068;-74
2022/01/18 13:40:15;;;;;;;17.52;8.70;;;7.20;99.90;;;;;;5011841;28;20075;-74
2022/01/18 13:42:50;;;;;;;22.63;8.57;;;7.10;99.90;;;;;;5027483;28;20051;-74
2022/01/18 13:45:25;;;;;;;15.65;8.50;;;7.10;99.90;;;;;;5027075;28;20045;-74
2022/01/18 13:48:00;;;;;;;23.85;9.68;;;7.00;99.90;;;;;;5028940;28;20102;-74
2022/01/18 13:50:58;;;;;;;18.92;8.45;;;7.00;99.90;;;;;;5028788;28;20048;-74
2022/01/18 13:53:32;;;;;;;23.23;8.82;;;7.00;99.90;;;;;;5029447;28;20053;-74
2022/01/18 13:56:01;;;;;;;19.60;8.98;;;7.00;99.90;;;;;;5011176;28;20053;-74
2022/01/18 13:58:30;;;;;;;20.30;8.75;;;7.00;99.90;;;;;;5007925;28;20048;-73
2022/01/18 14:01:14;;;;;;;20.17;8.85;;;7.00;99.90;;;;;;5026277;28;20074;-73
2022/01/18 14:03:41;;;;;;;16.80;8.63;;;7.00;99.90;;;;;;5008231;28;20041;-73
2022/01/18 14:06:11;;;;;;;19.83;8.27;;;6.90;99.90;;;;;;5027868;28;20037;-73
2022/01/18 14:08:40;;;;;;;20.17;8.27;;;7.00;99.90;;;;;;4991553;28;20037;-74
2022/01/18 14:11:11;;;;;;;20.10;8.10;;;7.00;99.90;;;;;;5025052;28;20190;-74
2022/01/18 14:13:38;;;;;;;;;;;6.90;99.90;;;;;;5026553;28;20045;-74
2022/01/18 14:16:28;;;;;;;24.90;9.27;;;6.90;99.90;;;;;;5021217;28;19983;-74
2022/01/18 14:19:01;;;;;;;19.45;8.68;;;6.90;99.90;;;;;;5029058;28;20149;-74
2022/01/18 14:21:38;;;;;;;22.20;7.78;;;6.90;99.90;;;;;;5028704;28;20473;-74
2022/01/18 14:24:25;;;;;;;20.52;8.25;;;6.90;99.90;;;;;;5033479;28;20276;-74
2022/01/18 14:26:51;;;;;;;19.02;7.47;;;6.90;99.90;;;;;;5027171;28;20098;-74
2022/01/18 14:29:19;;;;;;;18.80;7.88;;;6.90;99.90;;;;;;5028415;28;20049;-73
2022/01/18 14:32:06;;;;;;;18.98;8.65;;;6.90;99.90;;;;;;4997345;28;20208;-74
2022/01/18 14:34:36;;;;;;;19.55;8.43;;;6.80;99.90;;;;;;5028052;28;20581;-74